AUA26TE EHAM-EDDM
Flight info
| Callsign | AUA26TE |
|---|---|
| Flight time | 0h 55m |
| Altitude | 35000 |
| Route | EDUPO Z739 MISGO DCT DOJOH DCT DODEN/N0437F330 DCT TABUM DCT BOMBI T104 HAREM/N0405F270 T104 ROKIL ROKIL1A |
| Aircraft | B763/H-SDE3FGHIM3RWXY/LB1 |
Departure
| Time | 2026-04-17 12:21 |
|---|---|
| Airport | Amsterdam Airport Schiphol (EHAM) |
Arrival
| Time | 2026-04-17 13:17 |
|---|---|
| Airport | Munich Airport (EDDM) |
| Time | Latitude | Longitude | Altitude | Speed | Heading |
|---|---|---|---|---|---|
| 2026-04-17 11:43 | 52.30350 | 4.76449 | 7 ft | 0 kts | 238° |
| 2026-04-17 12:10 | 52.30362 | 4.76476 | 6 ft | 3 kts | 227° |
| 2026-04-17 12:10 | 52.30375 | 4.76486 | 8 ft | 2 kts | 190° |
| 2026-04-17 12:11 | 52.30385 | 4.76482 | 8 ft | 2 kts | 165° |
| 2026-04-17 12:11 | 52.30395 | 4.76475 | 7 ft | 2 kts | 154° |
| 2026-04-17 12:11 | 52.30405 | 4.76467 | 8 ft | 2 kts | 150° |
| 2026-04-17 12:12 | 52.30411 | 4.76460 | 9 ft | 0 kts | 149° |
| 2026-04-17 12:13 | 52.30406 | 4.76465 | 9 ft | 3 kts | 149° |
| 2026-04-17 12:13 | 52.30366 | 4.76507 | 8 ft | 10 kts | 142° |
| 2026-04-17 12:14 | 52.30339 | 4.76589 | 7 ft | 5 kts | 92° |
| 2026-04-17 12:14 | 52.30332 | 4.76685 | 7 ft | 12 kts | 108° |
| 2026-04-17 12:14 | 52.30322 | 4.76842 | 7 ft | 15 kts | 71° |
| 2026-04-17 12:14 | 52.30377 | 4.76993 | 7 ft | 15 kts | 56° |
| 2026-04-17 12:15 | 52.30433 | 4.77136 | 6 ft | 15 kts | 58° |
| 2026-04-17 12:15 | 52.30489 | 4.77279 | 7 ft | 15 kts | 57° |
| 2026-04-17 12:15 | 52.30542 | 4.77417 | 7 ft | 14 kts | 57° |
| 2026-04-17 12:15 | 52.30557 | 4.77536 | 7 ft | 9 kts | 99° |
| 2026-04-17 12:16 | 52.30552 | 4.77556 | 7 ft | 0 kts | 126° |
| 2026-04-17 12:16 | 52.30550 | 4.77558 | 7 ft | 1 kts | 146° |
| 2026-04-17 12:16 | 52.30546 | 4.77561 | 7 ft | 0 kts | 152° |
| 2026-04-17 12:18 | 52.30540 | 4.77567 | 7 ft | 5 kts | 152° |
| 2026-04-17 12:18 | 52.30493 | 4.77607 | 6 ft | 10 kts | 153° |
| 2026-04-17 12:18 | 52.30413 | 4.77618 | 6 ft | 5 kts | 213° |
| 2026-04-17 12:18 | 52.30396 | 4.77586 | 6 ft | 0 kts | 237° |
| 2026-04-17 12:19 | 52.30393 | 4.77580 | 6 ft | 1 kts | 237° |
| 2026-04-17 12:19 | 52.30391 | 4.77574 | 6 ft | 0 kts | 237° |
| 2026-04-17 12:20 | 52.30373 | 4.77527 | 6 ft | 31 kts | 237° |
| 2026-04-17 12:20 | 52.30073 | 4.76763 | 8 ft | 127 kts | 238° |
| 2026-04-17 12:21 | 52.29464 | 4.75141 | 109 ft | 201 kts | 236° |
| 2026-04-17 12:21 | 52.28616 | 4.73016 | 316 ft | 260 kts | 231° |
| 2026-04-17 12:21 | 52.27094 | 4.71101 | 553 ft | 272 kts | 202° |
| 2026-04-17 12:21 | 52.25258 | 4.70636 | 754 ft | 269 kts | 175° |
| 2026-04-17 12:22 | 52.23560 | 4.71632 | 937 ft | 269 kts | 148° |
| 2026-04-17 12:22 | 52.22215 | 4.73808 | 1182 ft | 269 kts | 132° |
| 2026-04-17 12:22 | 52.21043 | 4.76176 | 1390 ft | 268 kts | 128° |
| 2026-04-17 12:22 | 52.20050 | 4.78731 | 1645 ft | 268 kts | 121° |
| 2026-04-17 12:23 | 52.19136 | 4.81400 | 1876 ft | 268 kts | 121° |
| 2026-04-17 12:23 | 52.18339 | 4.84131 | 2047 ft | 270 kts | 105° |
| 2026-04-17 12:23 | 52.18240 | 4.87182 | 2245 ft | 271 kts | 88° |
| 2026-04-17 12:23 | 52.18441 | 4.90239 | 2457 ft | 272 kts | 83° |
| 2026-04-17 12:24 | 52.18741 | 4.93289 | 2659 ft | 272 kts | 82° |
| 2026-04-17 12:24 | 52.19095 | 4.96478 | 2938 ft | 309 kts | 81° |
| 2026-04-17 12:24 | 52.19595 | 5.00186 | 3350 ft | 359 kts | 75° |
| 2026-04-17 12:24 | 52.20398 | 5.04277 | 3815 ft | 398 kts | 73° |
| 2026-04-17 12:25 | 52.21242 | 5.08716 | 4245 ft | 403 kts | 74° |
| 2026-04-17 12:25 | 52.22023 | 5.12877 | 4762 ft | 376 kts | 74° |
| 2026-04-17 12:25 | 52.22737 | 5.16743 | 5292 ft | 333 kts | 74° |
| 2026-04-17 12:25 | 52.23331 | 5.20166 | 5644 ft | 299 kts | 83° |
| 2026-04-17 12:26 | 52.23190 | 5.23532 | 6079 ft | 302 kts | 107° |
| 2026-04-17 12:26 | 52.22524 | 5.26726 | 6552 ft | 304 kts | 114° |
| 2026-04-17 12:26 | 52.21642 | 5.29930 | 7014 ft | 305 kts | 118° |
| 2026-04-17 12:26 | 52.20682 | 5.33056 | 7453 ft | 311 kts | 120° |
| 2026-04-17 12:27 | 52.19661 | 5.36180 | 7875 ft | 318 kts | 121° |
| 2026-04-17 12:27 | 52.18510 | 5.39380 | 8344 ft | 333 kts | 126° |
| 2026-04-17 12:27 | 52.17157 | 5.42455 | 8870 ft | 336 kts | 129° |
| 2026-04-17 12:27 | 52.15764 | 5.45577 | 9409 ft | 344 kts | 128° |
| 2026-04-17 12:28 | 52.14381 | 5.48768 | 9952 ft | 347 kts | 128° |
| 2026-04-17 12:28 | 52.12973 | 5.52002 | 10465 ft | 351 kts | 128° |
| 2026-04-17 12:28 | 52.11551 | 5.55246 | 10929 ft | 353 kts | 128° |
| 2026-04-17 12:28 | 52.10119 | 5.58513 | 11404 ft | 357 kts | 128° |
| 2026-04-17 12:29 | 52.08672 | 5.61813 | 11907 ft | 360 kts | 128° |
| 2026-04-17 12:29 | 52.07258 | 5.65071 | 12405 ft | 363 kts | 128° |
| 2026-04-17 12:29 | 52.05729 | 5.68426 | 12854 ft | 367 kts | 133° |
| 2026-04-17 12:29 | 52.04028 | 5.71551 | 13105 ft | 367 kts | 135° |
| 2026-04-17 12:30 | 52.02353 | 5.74626 | 13190 ft | 370 kts | 134° |
| 2026-04-17 12:30 | 52.00649 | 5.77829 | 13193 ft | 369 kts | 134° |
| 2026-04-17 12:30 | 51.98981 | 5.80987 | 13199 ft | 367 kts | 133° |
| 2026-04-17 12:30 | 51.97320 | 5.84038 | 13873 ft | 354 kts | 137° |
| 2026-04-17 12:31 | 51.95573 | 5.86825 | 14731 ft | 354 kts | 140° |
| 2026-04-17 12:31 | 51.93770 | 5.89650 | 15605 ft | 367 kts | 139° |
| 2026-04-17 12:31 | 51.91932 | 5.92611 | 16492 ft | 378 kts | 138° |
| 2026-04-17 12:31 | 51.90042 | 5.95662 | 17396 ft | 388 kts | 138° |
| 2026-04-17 12:32 | 51.88101 | 5.98760 | 18332 ft | 396 kts | 139° |
| 2026-04-17 12:32 | 51.86120 | 6.01918 | 19160 ft | 404 kts | 139° |
| 2026-04-17 12:32 | 51.84106 | 6.05132 | 19999 ft | 410 kts | 139° |
| 2026-04-17 12:32 | 51.82758 | 6.07286 | 20562 ft | 413 kts | 138° |
| 2026-04-17 12:33 | 51.79993 | 6.11686 | 21739 ft | 419 kts | 138° |
| 2026-04-17 12:33 | 51.77904 | 6.15006 | 22635 ft | 423 kts | 138° |
| 2026-04-17 12:33 | 51.75798 | 6.18348 | 23571 ft | 426 kts | 138° |
| 2026-04-17 12:33 | 51.73681 | 6.21705 | 24382 ft | 429 kts | 138° |
| 2026-04-17 12:34 | 51.71518 | 6.25127 | 24824 ft | 442 kts | 138° |
| 2026-04-17 12:34 | 51.69308 | 6.28617 | 25026 ft | 460 kts | 138° |
| 2026-04-17 12:34 | 51.67741 | 6.31091 | 25113 ft | 472 kts | 138° |
| 2026-04-17 12:34 | 51.64555 | 6.36118 | 25176 ft | 496 kts | 138° |
| 2026-04-17 12:35 | 51.62042 | 6.40068 | 25205 ft | 513 kts | 137° |
| 2026-04-17 12:35 | 51.59449 | 6.44142 | 25211 ft | 527 kts | 137° |
| 2026-04-17 12:35 | 51.56791 | 6.48309 | 25212 ft | 540 kts | 137° |
| 2026-04-17 12:35 | 51.54071 | 6.52568 | 25208 ft | 551 kts | 137° |
| 2026-04-17 12:37 | 51.35446 | 6.81517 | 25199 ft | 560 kts | 137° |
| 2026-04-17 12:37 | 51.32634 | 6.85860 | 25201 ft | 560 kts | 137° |
| 2026-04-17 12:38 | 51.29824 | 6.90193 | 25203 ft | 560 kts | 137° |
| 2026-04-17 12:38 | 51.27011 | 6.94515 | 25206 ft | 560 kts | 137° |
| 2026-04-17 12:38 | 51.24209 | 6.98825 | 25204 ft | 560 kts | 137° |
| 2026-04-17 12:38 | 51.21428 | 7.03083 | 25206 ft | 560 kts | 137° |
| 2026-04-17 12:39 | 51.18644 | 7.07343 | 25209 ft | 560 kts | 137° |
| 2026-04-17 12:39 | 51.15803 | 7.11685 | 25212 ft | 560 kts | 137° |
| 2026-04-17 12:39 | 51.12991 | 7.15970 | 25210 ft | 560 kts | 137° |
| 2026-04-17 12:39 | 51.10179 | 7.20249 | 25213 ft | 560 kts | 138° |
| 2026-04-17 12:40 | 51.07362 | 7.24532 | 25211 ft | 560 kts | 137° |
| 2026-04-17 12:40 | 51.04542 | 7.28805 | 25210 ft | 560 kts | 137° |
| 2026-04-17 12:40 | 51.01724 | 7.33073 | 25210 ft | 560 kts | 138° |
| 2026-04-17 12:40 | 50.98904 | 7.37336 | 25210 ft | 560 kts | 137° |
| 2026-04-17 12:41 | 50.96077 | 7.41596 | 25213 ft | 560 kts | 137° |
| 2026-04-17 12:41 | 50.93253 | 7.45854 | 25215 ft | 560 kts | 138° |
| 2026-04-17 12:41 | 50.90422 | 7.50105 | 25217 ft | 560 kts | 137° |
| 2026-04-17 12:41 | 50.87595 | 7.54348 | 25217 ft | 560 kts | 138° |
| 2026-04-17 12:42 | 50.84767 | 7.58589 | 25215 ft | 560 kts | 138° |
| 2026-04-17 12:42 | 50.81970 | 7.62768 | 25218 ft | 560 kts | 138° |
| 2026-04-17 12:42 | 50.79122 | 7.67018 | 25226 ft | 560 kts | 138° |
| 2026-04-17 12:42 | 50.76267 | 7.71276 | 25226 ft | 560 kts | 138° |
| 2026-04-17 12:43 | 50.73437 | 7.75481 | 25228 ft | 560 kts | 138° |
| 2026-04-17 12:43 | 50.70628 | 7.79657 | 25232 ft | 560 kts | 138° |
| 2026-04-17 12:43 | 50.67784 | 7.83870 | 25235 ft | 560 kts | 138° |
| 2026-04-17 12:43 | 50.64941 | 7.88077 | 25232 ft | 560 kts | 138° |
| 2026-04-17 12:44 | 50.62112 | 7.92257 | 25236 ft | 560 kts | 138° |
| 2026-04-17 12:44 | 50.59241 | 7.96489 | 25232 ft | 560 kts | 138° |
| 2026-04-17 12:44 | 50.56467 | 8.00573 | 25228 ft | 561 kts | 138° |
| 2026-04-17 12:44 | 50.53574 | 8.04828 | 25230 ft | 561 kts | 138° |
| 2026-04-17 12:45 | 50.50697 | 8.09044 | 25233 ft | 561 kts | 138° |
| 2026-04-17 12:45 | 50.47881 | 8.13171 | 25228 ft | 561 kts | 138° |
| 2026-04-17 12:45 | 50.44982 | 8.17406 | 25224 ft | 561 kts | 138° |
| 2026-04-17 12:45 | 50.42127 | 8.21575 | 25218 ft | 561 kts | 138° |
| 2026-04-17 12:46 | 50.39261 | 8.25749 | 25215 ft | 562 kts | 138° |
| 2026-04-17 12:46 | 50.36429 | 8.29867 | 25208 ft | 562 kts | 138° |
| 2026-04-17 12:46 | 50.33547 | 8.34053 | 25207 ft | 562 kts | 138° |
| 2026-04-17 12:46 | 50.30688 | 8.38173 | 25206 ft | 562 kts | 138° |
| 2026-04-17 12:47 | 50.27872 | 8.42467 | 25203 ft | 562 kts | 133° |
| 2026-04-17 12:47 | 50.25246 | 8.46923 | 25214 ft | 562 kts | 134° |
| 2026-04-17 12:47 | 50.22550 | 8.51364 | 25211 ft | 561 kts | 133° |
| 2026-04-17 12:47 | 50.19879 | 8.55822 | 25204 ft | 562 kts | 134° |
| 2026-04-17 12:48 | 50.17199 | 8.60256 | 25203 ft | 562 kts | 134° |
| 2026-04-17 12:48 | 50.14516 | 8.64688 | 25208 ft | 562 kts | 134° |
| 2026-04-17 12:48 | 50.11860 | 8.69075 | 25210 ft | 562 kts | 134° |
| 2026-04-17 12:48 | 50.09210 | 8.73439 | 25208 ft | 561 kts | 134° |
| 2026-04-17 12:49 | 50.06493 | 8.77904 | 25208 ft | 562 kts | 134° |
| 2026-04-17 12:49 | 50.03805 | 8.82320 | 25209 ft | 561 kts | 134° |
| 2026-04-17 12:49 | 50.01113 | 8.86729 | 25207 ft | 562 kts | 134° |
| 2026-04-17 12:49 | 49.98423 | 8.91127 | 25208 ft | 562 kts | 134° |
| 2026-04-17 12:50 | 49.95726 | 8.95538 | 25206 ft | 562 kts | 134° |
| 2026-04-17 12:50 | 49.93034 | 8.99917 | 25207 ft | 562 kts | 134° |
| 2026-04-17 12:50 | 49.90331 | 9.04319 | 25206 ft | 562 kts | 134° |
| 2026-04-17 12:50 | 49.87635 | 9.08707 | 25210 ft | 562 kts | 134° |
| 2026-04-17 12:51 | 49.84946 | 9.13050 | 25202 ft | 547 kts | 134° |
| 2026-04-17 12:51 | 49.82445 | 9.17110 | 25183 ft | 520 kts | 134° |
| 2026-04-17 12:51 | 49.79909 | 9.21207 | 25194 ft | 515 kts | 134° |
| 2026-04-17 12:51 | 49.77423 | 9.25216 | 25207 ft | 517 kts | 134° |
| 2026-04-17 12:52 | 49.74927 | 9.29241 | 25210 ft | 519 kts | 134° |
| 2026-04-17 12:52 | 49.72419 | 9.33274 | 25215 ft | 521 kts | 134° |
| 2026-04-17 12:52 | 49.69903 | 9.37311 | 25217 ft | 523 kts | 134° |
| 2026-04-17 12:52 | 49.67377 | 9.41365 | 25213 ft | 524 kts | 134° |
| 2026-04-17 12:53 | 49.64871 | 9.45375 | 25212 ft | 525 kts | 134° |
| 2026-04-17 12:53 | 49.62325 | 9.49444 | 25206 ft | 526 kts | 134° |
| 2026-04-17 12:53 | 49.59779 | 9.53506 | 25209 ft | 527 kts | 134° |
| 2026-04-17 12:53 | 49.57232 | 9.57566 | 25215 ft | 528 kts | 134° |
| 2026-04-17 12:54 | 49.54669 | 9.61643 | 25216 ft | 529 kts | 134° |
| 2026-04-17 12:54 | 49.52104 | 9.65718 | 25214 ft | 530 kts | 134° |
| 2026-04-17 12:54 | 49.49537 | 9.69785 | 25215 ft | 530 kts | 134° |
| 2026-04-17 12:54 | 49.46964 | 9.73860 | 25221 ft | 531 kts | 134° |
| 2026-04-17 12:55 | 49.44392 | 9.77924 | 25216 ft | 531 kts | 134° |
| 2026-04-17 12:55 | 49.41861 | 9.81916 | 25217 ft | 532 kts | 134° |
| 2026-04-17 12:55 | 49.39233 | 9.86061 | 25210 ft | 531 kts | 134° |
| 2026-04-17 12:55 | 49.36654 | 9.90115 | 25211 ft | 529 kts | 134° |
| 2026-04-17 12:56 | 49.34086 | 9.94147 | 25211 ft | 530 kts | 134° |
| 2026-04-17 12:56 | 49.31508 | 9.98189 | 25209 ft | 530 kts | 134° |
| 2026-04-17 12:56 | 49.28925 | 10.02232 | 25211 ft | 531 kts | 134° |
| 2026-04-17 12:56 | 49.26379 | 10.06214 | 25212 ft | 530 kts | 134° |
| 2026-04-17 12:57 | 49.23791 | 10.10250 | 25216 ft | 530 kts | 134° |
| 2026-04-17 12:57 | 49.21207 | 10.14275 | 25215 ft | 530 kts | 134° |
| 2026-04-17 12:57 | 49.18618 | 10.18305 | 25220 ft | 531 kts | 134° |
| 2026-04-17 12:57 | 49.16026 | 10.22328 | 25220 ft | 531 kts | 134° |
| 2026-04-17 12:58 | 49.13436 | 10.26346 | 25224 ft | 531 kts | 134° |
| 2026-04-17 12:58 | 49.10836 | 10.30369 | 25228 ft | 531 kts | 134° |
| 2026-04-17 12:58 | 49.08240 | 10.34382 | 25235 ft | 532 kts | 134° |
| 2026-04-17 12:58 | 49.05640 | 10.38396 | 25232 ft | 532 kts | 134° |
| 2026-04-17 12:59 | 49.03037 | 10.42405 | 25237 ft | 531 kts | 134° |
| 2026-04-17 12:59 | 49.00439 | 10.46402 | 25235 ft | 531 kts | 134° |
| 2026-04-17 12:59 | 48.97840 | 10.50396 | 25237 ft | 531 kts | 134° |
| 2026-04-17 12:59 | 48.95252 | 10.54420 | 25241 ft | 532 kts | 135° |
| 2026-04-17 13:00 | 48.92602 | 10.58352 | 25237 ft | 533 kts | 135° |
| 2026-04-17 13:00 | 48.89968 | 10.62319 | 25235 ft | 533 kts | 135° |
| 2026-04-17 13:00 | 48.87333 | 10.66271 | 25232 ft | 532 kts | 135° |
| 2026-04-17 13:00 | 48.84699 | 10.70216 | 25231 ft | 532 kts | 135° |
| 2026-04-17 13:01 | 48.82059 | 10.74165 | 25121 ft | 534 kts | 135° |
| 2026-04-17 13:01 | 48.79398 | 10.78137 | 24131 ft | 534 kts | 135° |
| 2026-04-17 13:01 | 48.76775 | 10.82050 | 23069 ft | 524 kts | 135° |
| 2026-04-17 13:01 | 48.74196 | 10.85887 | 22005 ft | 514 kts | 135° |
| 2026-04-17 13:02 | 48.71668 | 10.89646 | 20975 ft | 504 kts | 135° |
| 2026-04-17 13:02 | 48.69248 | 10.93236 | 19997 ft | 494 kts | 135° |
| 2026-04-17 13:02 | 48.66793 | 10.96877 | 19022 ft | 484 kts | 135° |
| 2026-04-17 13:02 | 48.64409 | 11.00405 | 18028 ft | 474 kts | 135° |
| 2026-04-17 13:03 | 48.62069 | 11.03863 | 16952 ft | 465 kts | 135° |
| 2026-04-17 13:03 | 48.59777 | 11.07247 | 15932 ft | 455 kts | 135° |
| 2026-04-17 13:03 | 48.57527 | 11.10559 | 14939 ft | 446 kts | 135° |
| 2026-04-17 13:03 | 48.55334 | 11.13794 | 14103 ft | 435 kts | 135° |
| 2026-04-17 13:04 | 48.53149 | 11.16797 | 13638 ft | 413 kts | 144° |
| 2026-04-17 13:04 | 48.50761 | 11.18546 | 13424 ft | 371 kts | 166° |
| 2026-04-17 13:04 | 48.48221 | 11.18860 | 13396 ft | 367 kts | 187° |
| 2026-04-17 13:04 | 48.45692 | 11.18237 | 13372 ft | 370 kts | 192° |
| 2026-04-17 13:05 | 48.43154 | 11.17520 | 13338 ft | 371 kts | 191° |
| 2026-04-17 13:05 | 48.40665 | 11.16918 | 13314 ft | 370 kts | 189° |
| 2026-04-17 13:05 | 48.38054 | 11.16430 | 13307 ft | 370 kts | 187° |
| 2026-04-17 13:05 | 48.35485 | 11.16042 | 13315 ft | 371 kts | 186° |
| 2026-04-17 13:06 | 48.32910 | 11.15718 | 13296 ft | 371 kts | 185° |
| 2026-04-17 13:06 | 48.30327 | 11.15656 | 13298 ft | 372 kts | 181° |
| 2026-04-17 13:06 | 48.27744 | 11.15431 | 13316 ft | 372 kts | 186° |
| 2026-04-17 13:06 | 48.25162 | 11.15159 | 13316 ft | 372 kts | 184° |
| 2026-04-17 13:07 | 48.22570 | 11.15097 | 13303 ft | 372 kts | 180° |
| 2026-04-17 13:07 | 48.20012 | 11.15230 | 13314 ft | 373 kts | 178° |
| 2026-04-17 13:07 | 48.17415 | 11.15616 | 12933 ft | 378 kts | 169° |
| 2026-04-17 13:07 | 48.14871 | 11.16524 | 12461 ft | 372 kts | 167° |
| 2026-04-17 13:08 | 48.12393 | 11.17533 | 11976 ft | 366 kts | 160° |
| 2026-04-17 13:08 | 48.10118 | 11.19167 | 11526 ft | 361 kts | 146° |
| 2026-04-17 13:08 | 48.08246 | 11.21619 | 11098 ft | 357 kts | 130° |
| 2026-04-17 13:08 | 48.06955 | 11.24749 | 10667 ft | 352 kts | 113° |
| 2026-04-17 13:09 | 48.06357 | 11.28261 | 10243 ft | 348 kts | 96° |
| 2026-04-17 13:09 | 48.06516 | 11.31833 | 9788 ft | 345 kts | 74° |
| 2026-04-17 13:09 | 48.07356 | 11.35164 | 9309 ft | 341 kts | 65° |
| 2026-04-17 13:09 | 48.08409 | 11.38320 | 8827 ft | 337 kts | 58° |
| 2026-04-17 13:10 | 48.09741 | 11.41174 | 8347 ft | 333 kts | 57° |
| 2026-04-17 13:10 | 48.10720 | 11.44292 | 7904 ft | 329 kts | 65° |
| 2026-04-17 13:10 | 48.12053 | 11.47035 | 7479 ft | 328 kts | 42° |
| 2026-04-17 13:10 | 48.13980 | 11.48714 | 7030 ft | 318 kts | 18° |
| 2026-04-17 13:11 | 48.16138 | 11.49056 | 6605 ft | 309 kts | 354° |
| 2026-04-17 13:11 | 48.18195 | 11.48512 | 6365 ft | 291 kts | 350° |
| 2026-04-17 13:11 | 48.20114 | 11.47954 | 6274 ft | 271 kts | 352° |
| 2026-04-17 13:11 | 48.21915 | 11.47565 | 6228 ft | 253 kts | 356° |
| 2026-04-17 13:12 | 48.23628 | 11.47386 | 6203 ft | 250 kts | 0° |
| 2026-04-17 13:12 | 48.27093 | 11.47535 | 5731 ft | 247 kts | 6° |
| 2026-04-17 13:12 | 48.28788 | 11.47873 | 5378 ft | 248 kts | 13° |
| 2026-04-17 13:13 | 48.30430 | 11.48430 | 4988 ft | 232 kts | 16° |
| 2026-04-17 13:13 | 48.31953 | 11.48982 | 4593 ft | 220 kts | 19° |
| 2026-04-17 13:13 | 48.33147 | 11.50279 | 4393 ft | 212 kts | 56° |
| 2026-04-17 13:13 | 48.33586 | 11.52355 | 4332 ft | 214 kts | 91° |
| 2026-04-17 13:14 | 48.33533 | 11.54565 | 4422 ft | 217 kts | 82° |
| 2026-04-17 13:14 | 48.33817 | 11.56785 | 4331 ft | 217 kts | 76° |
| 2026-04-17 13:14 | 48.34186 | 11.58995 | 4036 ft | 217 kts | 75° |
| 2026-04-17 13:14 | 48.34559 | 11.61180 | 3581 ft | 215 kts | 73° |
| 2026-04-17 13:15 | 48.34898 | 11.63304 | 3225 ft | 212 kts | 77° |
| 2026-04-17 13:15 | 48.35168 | 11.65505 | 2976 ft | 211 kts | 80° |
| 2026-04-17 13:15 | 48.35388 | 11.67659 | 2770 ft | 202 kts | 77° |
| 2026-04-17 13:15 | 48.35622 | 11.69671 | 2493 ft | 197 kts | 78° |
| 2026-04-17 13:16 | 48.35874 | 11.71702 | 2174 ft | 199 kts | 76° |
| 2026-04-17 13:16 | 48.36019 | 11.73780 | 1855 ft | 200 kts | 83° |
| 2026-04-17 13:16 | 48.36188 | 11.75832 | 1626 ft | 195 kts | 81° |
| 2026-04-17 13:16 | 48.36359 | 11.77809 | 1489 ft | 179 kts | 84° |
| 2026-04-17 13:17 | 48.36437 | 11.79207 | 1482 ft | 81 kts | 97° |
| 2026-04-17 13:17 | 48.36331 | 11.79673 | 1487 ft | 38 kts | 114° |
| 2026-04-17 13:17 | 48.36208 | 11.79836 | 1488 ft | 14 kts | 172° |
| 2026-04-17 13:17 | 48.36151 | 11.79833 | 1485 ft | 1 kts | 212° |
| 2026-04-17 13:18 | 48.36144 | 11.79823 | 1488 ft | 1 kts | 229° |
| 2026-04-17 13:18 | 48.36123 | 11.79759 | 1486 ft | 15 kts | 248° |
| 2026-04-17 13:18 | 48.36111 | 11.79690 | 1493 ft | 8 kts | 269° |
| 2026-04-17 13:18 | 48.36107 | 11.79562 | 1493 ft | 13 kts | 261° |
| 2026-04-17 13:19 | 48.36062 | 11.79497 | 1491 ft | 10 kts | 196° |
| 2026-04-17 13:19 | 48.35981 | 11.79499 | 1485 ft | 15 kts | 174° |
| 2026-04-17 13:19 | 48.35854 | 11.79523 | 1491 ft | 21 kts | 172° |
| 2026-04-17 13:19 | 48.35800 | 11.79602 | 1483 ft | 9 kts | 92° |
| 2026-04-17 13:20 | 48.35806 | 11.79680 | 1486 ft | 8 kts | 83° |
| 2026-04-17 13:20 | 48.35814 | 11.79772 | 1487 ft | 10 kts | 83° |
| 2026-04-17 13:20 | 48.35823 | 11.79880 | 1493 ft | 11 kts | 83° |
| 2026-04-17 13:20 | 48.35827 | 11.80003 | 1493 ft | 12 kts | 103° |
| 2026-04-17 13:21 | 48.35801 | 11.80056 | 1493 ft | 3 kts | 152° |
| 2026-04-17 13:21 | 48.35771 | 11.80068 | 1488 ft | 7 kts | 170° |
| 2026-04-17 13:21 | 48.35708 | 11.80083 | 1481 ft | 9 kts | 169° |
| 2026-04-17 13:21 | 48.35676 | 11.80075 | 1490 ft | 1 kts | 205° |
| 2026-04-17 13:22 | 48.35656 | 11.80040 | 1487 ft | 3 kts | 250° |
| 2026-04-17 13:22 | 48.35650 | 11.79980 | 1483 ft | 0 kts | 262° |